createdAt,value
2022-08-19T00:01:37.934Z,9.25
2022-08-19T00:04:09.211Z,8.70
2022-08-19T00:06:38.170Z,8.20
2022-08-19T00:09:07.287Z,7.53
2022-08-19T00:11:38.551Z,7.97
2022-08-19T00:14:08.318Z,7.03
2022-08-19T00:16:35.345Z,6.78
2022-08-19T00:19:02.335Z,7.47
2022-08-19T00:21:29.715Z,7.93
2022-08-19T00:24:01.577Z,7.20
2022-08-19T00:26:29.339Z,7.25
2022-08-19T00:28:56.938Z,7.25
2022-08-19T00:31:23.961Z,8.30
2022-08-19T00:33:51.516Z,8.25
2022-08-19T00:36:18.763Z,7.43
2022-08-19T00:38:45.827Z,7.78
2022-08-19T00:41:18.466Z,8.27
2022-08-19T00:44:06.622Z,7.53
2022-08-19T00:46:36.937Z,7.85
2022-08-19T00:49:27.726Z,7.07
2022-08-19T00:52:19.652Z,6.25
2022-08-19T00:54:52.364Z,6.75
2022-08-19T00:57:25.086Z,7.38
2022-08-19T01:00:02.345Z,6.55
2022-08-19T01:02:32.659Z,6.13
2022-08-19T01:05:02.438Z,6.07
2022-08-19T01:07:35.927Z,5.10
2022-08-19T01:10:10.451Z,5.43
2022-08-19T01:12:38.971Z,5.30
2022-08-19T01:15:09.768Z,5.63
2022-08-19T01:17:39.822Z,5.55
2022-08-19T01:20:10.543Z,4.47
2022-08-19T01:22:45.216Z,5.13
2022-08-19T01:25:15.286Z,5.68
2022-08-19T01:27:48.512Z,4.82
2022-08-19T01:30:23.488Z,5.03
2022-08-19T01:32:52.394Z,4.85
2022-08-19T01:35:20.652Z,5.28
2022-08-19T01:38:16.579Z,4.68
2022-08-19T01:40:44.192Z,4.18
2022-08-19T01:43:11.148Z,4.25
2022-08-19T01:45:41.308Z,4.65
2022-08-19T01:48:08.649Z,4.47
2022-08-19T01:50:36.719Z,4.43
2022-08-19T01:53:10.501Z,3.83
2022-08-19T01:58:15.661Z,4.28
2022-08-19T02:00:42.973Z,3.78
2022-08-19T02:03:11.021Z,4.40
2022-08-19T02:05:38.955Z,5.22
2022-08-19T02:08:06.035Z,5.05
2022-08-19T02:10:33.185Z,5.50
2022-08-19T02:13:00.313Z,4.75
2022-08-19T02:15:27.296Z,5.78
2022-08-19T02:17:54.253Z,6.10
2022-08-19T02:20:21.309Z,5.90
2022-08-19T02:22:48.246Z,6.35
2022-08-19T02:25:15.592Z,6.70
2022-08-19T02:27:43.443Z,5.97
2022-08-19T02:30:16.699Z,6.20
2022-08-19T02:32:44.949Z,5.65
2022-08-19T02:35:15.814Z,6.70
2022-08-19T02:38:02.429Z,6.20
2022-08-19T02:40:31.047Z,6.57
2022-08-19T02:42:58.283Z,6.45
2022-08-19T02:45:25.302Z,6.85
2022-08-19T02:47:52.200Z,6.70
2022-08-19T02:50:19.602Z,6.68
2022-08-19T02:52:46.540Z,6.70
2022-08-19T02:55:13.488Z,7.10
2022-08-19T02:57:40.382Z,7.50
2022-08-19T03:00:10.203Z,7.70
2022-08-19T03:02:37.165Z,8.48
2022-08-19T03:05:06.018Z,8.70
2022-08-19T03:07:33.208Z,7.85
2022-08-19T03:10:00.274Z,7.85
2022-08-19T03:12:27.233Z,8.18
2022-08-19T03:14:54.226Z,9.95
2022-08-19T03:17:21.484Z,8.43
2022-08-19T03:19:48.480Z,9.65
2022-08-19T03:22:15.456Z,10.60
2022-08-19T03:24:42.478Z,10.07
2022-08-19T03:27:09.408Z,11.05
2022-08-19T03:29:43.288Z,10.73
2022-08-19T03:32:31.720Z,10.38
2022-08-19T03:34:58.333Z,10.25
2022-08-19T03:37:25.223Z,9.82
2022-08-19T03:39:52.978Z,9.88
2022-08-19T03:42:45.363Z,11.38
2022-08-19T03:45:08.450Z,10.25
2022-08-19T03:47:35.415Z,10.40
2022-08-19T03:50:03.137Z,10.20
2022-08-19T03:52:30.048Z,9.07
2022-08-19T03:54:57.339Z,10.00
2022-08-19T03:57:31.632Z,9.38
2022-08-19T04:00:04.010Z,9.13
2022-08-19T04:02:42.920Z,9.52
2022-08-19T04:05:27.736Z,8.48
2022-08-19T04:07:56.062Z,8.13
2022-08-19T04:10:23.473Z,8.80
2022-08-19T04:12:50.403Z,8.80
2022-08-19T04:15:18.221Z,9.07
2022-08-19T04:17:45.115Z,8.23
2022-08-19T04:20:12.101Z,7.50
2022-08-19T04:22:38.980Z,8.18
2022-08-19T04:25:06.359Z,7.88
2022-08-19T04:27:34.391Z,7.80
2022-08-19T04:30:01.331Z,7.63
2022-08-19T04:32:28.216Z,8.40
2022-08-19T04:35:02.002Z,7.05
2022-08-19T04:37:43.488Z,7.30
2022-08-19T04:40:29.609Z,8.80
2022-08-19T04:42:57.380Z,7.53
2022-08-19T04:45:24.286Z,7.03
2022-08-19T04:47:58.483Z,6.75
2022-08-19T04:50:44.692Z,6.80
2022-08-19T04:53:11.794Z,7.03
2022-08-19T04:55:42.907Z,7.38
2022-08-19T04:58:09.916Z,6.35
2022-08-19T05:00:40.594Z,7.45
2022-08-19T05:03:08.460Z,7.13
2022-08-19T05:05:45.112Z,6.90
2022-08-19T05:08:31.106Z,6.53
2022-08-19T05:10:58.861Z,8.25
2022-08-19T05:13:26.261Z,6.35
2022-08-19T05:15:59.966Z,6.05
2022-08-19T05:21:33.479Z,6.18
2022-08-19T05:24:00.473Z,5.78
2022-08-19T05:26:27.799Z,5.60
2022-08-19T05:28:55.595Z,3.95
2022-08-19T05:31:22.772Z,3.47
2022-08-19T05:33:50.375Z,2.75
2022-08-19T05:36:17.611Z,2.42
2022-08-19T05:38:44.628Z,2.70
2022-08-19T05:41:15.863Z,2.80
2022-08-19T05:43:42.824Z,2.65
2022-08-19T05:46:16.885Z,2.80
2022-08-19T05:48:43.827Z,3.13
2022-08-19T05:51:11.553Z,3.38
2022-08-19T05:53:38.674Z,3.33
2022-08-19T05:56:11.596Z,3.13
2022-08-19T05:58:39.157Z,3.73
2022-08-19T06:01:11.479Z,3.80
2022-08-19T06:03:39.788Z,3.35
2022-08-19T06:06:08.876Z,3.58
2022-08-19T06:08:38.202Z,3.15
2022-08-19T06:11:19.175Z,3.60
2022-08-19T06:13:48.742Z,3.28
2022-08-19T06:16:21.804Z,3.78
2022-08-19T06:18:52.645Z,3.28
2022-08-19T06:21:25.185Z,3.17
2022-08-19T06:23:53.227Z,3.20
2022-08-19T06:26:21.252Z,3.75
2022-08-19T06:28:49.255Z,3.63
2022-08-19T06:31:29.169Z,3.20
2022-08-19T06:33:56.256Z,3.95
2022-08-19T06:36:32.226Z,3.15
2022-08-19T06:39:10.515Z,3.30
2022-08-19T06:41:48.792Z,3.58
2022-08-19T06:44:20.822Z,3.40
2022-08-19T06:46:54.554Z,3.65
2022-08-19T06:49:22.852Z,3.60
2022-08-19T06:51:50.781Z,3.05
2022-08-19T06:54:20.407Z,3.90
2022-08-19T06:56:47.777Z,3.30
2022-08-19T06:59:17.499Z,3.33
2022-08-19T07:01:50.651Z,9.43
2022-08-19T07:04:21.294Z,10.65
2022-08-19T07:06:54.981Z,13.98
2022-08-19T07:09:22.422Z,11.05
2022-08-19T07:11:53.302Z,4.57
2022-08-19T07:14:22.815Z,2.80
2022-08-19T07:16:52.461Z,2.72
2022-08-19T07:19:20.653Z,2.20
2022-08-19T07:21:53.629Z,1.90
2022-08-19T07:24:25.790Z,2.13
2022-08-19T07:26:54.590Z,1.90
2022-08-19T07:29:25.585Z,1.85
2022-08-19T07:31:57.049Z,1.80
2022-08-19T07:34:26.221Z,1.60
2022-08-19T07:36:54.584Z,1.48
2022-08-19T07:39:28.756Z,1.30
2022-08-19T07:41:57.755Z,1.00
2022-08-19T07:44:24.899Z,0.98
2022-08-19T07:46:56.708Z,0.95
2022-08-19T07:49:24.656Z,0.90
2022-08-19T07:51:54.604Z,0.90
2022-08-19T07:54:23.614Z,0.70
2022-08-19T07:56:52.413Z,0.82
2022-08-19T07:59:21.663Z,0.80
2022-08-19T08:01:51.049Z,0.77
2022-08-19T08:04:37.937Z,0.80
2022-08-19T08:07:25.990Z,0.50
2022-08-19T08:09:58.959Z,0.70
2022-08-19T08:12:35.622Z,0.70
2022-08-19T08:15:08.271Z,0.80
2022-08-19T08:17:48.784Z,0.90
2022-08-19T08:20:17.013Z,1.27
2022-08-19T08:23:04.757Z,1.00
2022-08-19T08:25:34.438Z,0.82
2022-08-19T08:28:03.851Z,1.13
2022-08-19T08:30:33.830Z,1.00
2022-08-19T08:33:02.678Z,1.00
2022-08-19T08:35:30.050Z,0.95
2022-08-19T08:37:57.718Z,1.48
2022-08-19T08:40:32.486Z,1.10
2022-08-19T08:43:10.765Z,1.10
2022-08-19T08:45:47.740Z,1.00
2022-08-19T08:49:06.672Z,0.80
2022-08-19T08:54:15.804Z,1.00
2022-08-19T08:56:44.595Z,1.00
2022-08-19T08:59:23.164Z,1.20
2022-08-19T09:01:50.177Z,0.90
2022-08-19T09:04:18.369Z,0.93
2022-08-19T09:07:26.251Z,0.90
2022-08-19T09:10:09.213Z,1.00
2022-08-19T09:12:58.093Z,1.38
2022-08-19T09:15:36.859Z,1.15
2022-08-19T09:18:07.205Z,1.00
2022-08-19T09:20:35.075Z,1.10
2022-08-19T09:23:02.142Z,1.40
2022-08-19T09:25:29.960Z,1.00
2022-08-19T09:28:02.309Z,1.30
2022-08-19T09:30:34.594Z,1.00
2022-08-19T09:33:02.015Z,1.40
2022-08-19T09:35:31.035Z,1.05
2022-08-19T09:38:00.117Z,0.93
2022-08-19T09:40:31.921Z,1.10
2022-08-19T09:43:10.053Z,1.23
2022-08-19T09:45:39.936Z,0.90
2022-08-19T09:48:07.223Z,0.90
2022-08-19T09:50:35.995Z,1.30
2022-08-19T09:53:02.975Z,1.20
2022-08-19T09:55:31.081Z,1.58
2022-08-19T09:58:00.196Z,1.42
2022-08-19T10:00:27.797Z,1.30
2022-08-19T10:02:54.703Z,0.90
2022-08-19T10:05:42.442Z,1.65
2022-08-19T10:08:13.404Z,1.00
2022-08-19T10:10:46.365Z,1.30
2022-08-19T10:13:16.887Z,0.98
2022-08-19T10:15:47.216Z,1.08
2022-08-19T10:18:19.296Z,0.93
2022-08-19T10:20:51.835Z,1.13
2022-08-19T10:23:21.677Z,1.30
2022-08-19T10:25:49.165Z,0.85
2022-08-19T10:28:16.263Z,1.10
2022-08-19T10:30:46.983Z,1.02
2022-08-19T10:33:14.996Z,0.80
2022-08-19T10:35:57.119Z,0.98
2022-08-19T10:38:31.750Z,0.95
2022-08-19T10:41:07.608Z,0.85
2022-08-19T10:43:38.180Z,0.82
2022-08-19T10:46:13.821Z,0.80
2022-08-19T10:48:43.184Z,0.80
2022-08-19T10:51:30.495Z,0.63
2022-08-19T10:53:59.061Z,1.05
2022-08-19T10:56:45.372Z,1.10
2022-08-19T10:59:14.661Z,0.68
2022-08-19T11:01:44.563Z,1.27
2022-08-19T11:04:14.709Z,0.90
2022-08-19T11:06:44.480Z,0.40
2022-08-19T11:09:12.604Z,0.70
2022-08-19T11:11:42.863Z,0.50
2022-08-19T11:14:14.867Z,0.50
2022-08-19T11:16:43.454Z,0.50
2022-08-19T11:19:12.366Z,0.43
2022-08-19T11:21:43.070Z,0.38
2022-08-19T11:24:16.297Z,0.70
2022-08-19T11:29:13.997Z,0.60
2022-08-19T11:31:43.843Z,0.57
2022-08-19T11:34:13.759Z,0.68
2022-08-19T11:36:43.879Z,1.00
2022-08-19T11:39:12.990Z,0.68
2022-08-19T11:41:40.319Z,0.90
2022-08-19T11:44:08.776Z,1.30
2022-08-19T11:46:38.241Z,0.80
2022-08-19T11:49:10.656Z,0.93
2022-08-19T11:51:40.495Z,0.80
2022-08-19T11:54:07.711Z,1.13
2022-08-19T11:56:34.786Z,0.88
2022-08-19T11:59:02.002Z,0.85
2022-08-19T12:01:29.040Z,0.98
2022-08-19T12:03:57.307Z,0.65
2022-08-19T12:06:29.588Z,0.90
2022-08-19T12:08:58.212Z,0.90
2022-08-19T12:11:25.664Z,0.73
2022-08-19T12:13:53.052Z,0.77
2022-08-19T12:16:24.631Z,0.70
2022-08-19T12:18:52.035Z,0.60
2022-08-19T12:21:26.093Z,0.80
2022-08-19T12:23:55.763Z,0.90
2022-08-19T12:26:23.845Z,1.10
2022-08-19T12:28:51.123Z,0.77
2022-08-19T12:31:20.449Z,0.95
2022-08-19T12:33:48.034Z,1.08
2022-08-19T12:36:17.130Z,1.25
2022-08-19T12:38:45.117Z,0.77
2022-08-19T12:41:14.360Z,0.68
2022-08-19T12:43:42.859Z,0.80
2022-08-19T12:46:10.874Z,1.10
2022-08-19T12:48:42.830Z,0.65
2022-08-19T12:51:15.664Z,0.77
2022-08-19T12:53:42.799Z,0.60
2022-08-19T12:56:12.629Z,0.73
2022-08-19T12:58:40.328Z,0.60
2022-08-19T13:01:12.008Z,0.50
2022-08-19T13:03:40.789Z,0.68
2022-08-19T13:06:09.226Z,0.70
2022-08-19T13:08:36.840Z,0.70
2022-08-19T13:11:14.746Z,0.77
2022-08-19T13:13:43.388Z,0.70
2022-08-19T13:16:12.111Z,0.70
2022-08-19T13:18:40.628Z,0.60
2022-08-19T13:21:09.453Z,0.88
2022-08-19T13:23:36.867Z,0.73
2022-08-19T13:26:07.024Z,0.75
2022-08-19T13:28:54.145Z,1.00
2022-08-19T13:31:42.608Z,0.80
2022-08-19T13:34:09.961Z,1.08
2022-08-19T13:36:38.160Z,0.73
2022-08-19T13:39:07.088Z,1.00
2022-08-19T13:41:34.795Z,1.10
2022-08-19T13:44:02.838Z,0.85
2022-08-19T13:46:30.198Z,0.75
2022-08-19T13:48:58.156Z,0.60
2022-08-19T13:51:25.231Z,0.93
2022-08-19T13:53:52.469Z,0.80
2022-08-19T13:56:26.314Z,1.00
2022-08-19T13:58:54.477Z,1.10
2022-08-19T14:01:24.702Z,1.10
2022-08-19T14:03:52.327Z,0.82
2022-08-19T14:06:19.904Z,0.80
2022-08-19T14:08:48.798Z,0.77
2022-08-19T14:11:15.984Z,1.00
2022-08-19T14:13:42.970Z,0.70
2022-08-19T14:16:14.808Z,0.77
2022-08-19T14:18:42.551Z,0.77
2022-08-19T14:21:15.410Z,0.80
2022-08-19T14:23:42.352Z,0.80
2022-08-19T14:26:12.581Z,0.60
2022-08-19T14:28:43.659Z,0.80
2022-08-19T14:31:19.367Z,0.60
2022-08-19T14:33:47.996Z,0.85
2022-08-19T14:36:15.184Z,1.02
2022-08-19T14:38:42.227Z,0.93
2022-08-19T14:41:10.450Z,1.00
2022-08-19T14:43:37.563Z,1.00
2022-08-19T14:46:04.540Z,1.00
2022-08-19T14:48:31.503Z,0.68
2022-08-19T14:50:58.648Z,0.90
2022-08-19T14:53:25.598Z,0.80
2022-08-19T14:55:52.535Z,0.90
2022-08-19T14:58:29.527Z,0.93
2022-08-19T15:01:00.126Z,1.00
2022-08-19T15:03:27.598Z,0.80
2022-08-19T15:05:55.360Z,0.90
2022-08-19T15:08:25.766Z,1.00
2022-08-19T15:10:53.334Z,1.10
2022-08-19T15:13:20.270Z,1.00
2022-08-19T15:15:48.410Z,1.02
2022-08-19T15:18:15.806Z,1.50
2022-08-19T15:20:44.511Z,1.70
2022-08-19T15:23:17.751Z,1.30
2022-08-19T15:25:44.962Z,1.65
2022-08-19T15:28:12.350Z,1.40
2022-08-19T15:30:41.262Z,1.17
2022-08-19T15:33:08.819Z,1.52
2022-08-19T15:35:35.773Z,1.30
2022-08-19T15:38:03.048Z,1.23
2022-08-19T15:40:30.067Z,1.35
2022-08-19T15:42:58.793Z,1.35
2022-08-19T15:45:32.562Z,1.00
2022-08-19T15:48:00.686Z,1.38
2022-08-19T15:50:28.344Z,1.10
2022-08-19T15:53:01.053Z,1.00
2022-08-19T15:55:33.118Z,1.23
2022-08-19T15:58:28.869Z,1.30
2022-08-19T16:01:20.616Z,1.10
2022-08-19T16:04:27.884Z,1.15
2022-08-19T16:06:57.293Z,1.10
2022-08-19T16:09:30.384Z,1.13
2022-08-19T16:12:02.121Z,0.93
2022-08-19T16:14:33.066Z,0.90
2022-08-19T16:17:00.588Z,1.00
2022-08-19T16:19:27.779Z,0.85
2022-08-19T16:21:56.892Z,1.10
2022-08-19T16:24:26.695Z,0.80
2022-08-19T16:26:54.960Z,0.82
2022-08-19T16:29:34.572Z,0.88
2022-08-19T16:32:11.356Z,1.13
2022-08-19T16:34:40.879Z,0.90
2022-08-19T16:37:08.411Z,1.27
2022-08-19T16:39:36.915Z,1.02
2022-08-19T16:42:04.899Z,1.48
2022-08-19T16:44:35.219Z,1.05
2022-08-19T16:47:02.434Z,1.10
2022-08-19T16:49:52.821Z,0.95
2022-08-19T16:52:18.985Z,1.20
2022-08-19T16:54:46.819Z,1.20
2022-08-19T16:57:14.071Z,1.55
2022-08-19T16:59:48.333Z,1.30
2022-08-19T17:02:21.961Z,1.13
2022-08-19T17:04:58.303Z,1.30
2022-08-19T17:07:33.010Z,1.33
2022-08-19T17:10:02.141Z,1.83
2022-08-19T17:12:32.092Z,1.67
2022-08-19T17:15:01.318Z,1.60
2022-08-19T17:17:29.657Z,1.60
2022-08-19T17:19:59.111Z,1.63
2022-08-19T17:22:26.377Z,1.92
2022-08-19T17:24:56.204Z,1.40
2022-08-19T17:27:25.994Z,1.65
2022-08-19T17:29:53.131Z,1.38
2022-08-19T17:32:24.986Z,1.92
2022-08-19T17:34:54.219Z,2.00
2022-08-19T17:37:21.271Z,1.77
2022-08-19T17:39:48.434Z,1.42
2022-08-19T17:42:15.467Z,1.23
2022-08-19T17:44:42.507Z,1.73
2022-08-19T17:47:13.051Z,1.80
2022-08-19T17:49:40.115Z,1.80
2022-08-19T17:52:09.918Z,1.70
2022-08-19T17:54:37.402Z,2.08
2022-08-19T17:57:04.503Z,1.90
2022-08-19T17:59:31.474Z,1.92
2022-08-19T18:01:59.972Z,2.45
2022-08-19T18:04:29.842Z,1.75
2022-08-19T18:06:57.291Z,2.10
2022-08-19T18:09:38.629Z,1.35
2022-08-19T18:12:11.645Z,1.95
2022-08-19T18:14:39.313Z,1.85
2022-08-19T18:17:17.314Z,1.67
2022-08-19T18:19:45.741Z,2.10
2022-08-19T18:22:22.798Z,2.05
2022-08-19T18:24:49.834Z,2.00
2022-08-19T18:27:17.077Z,1.88
2022-08-19T18:29:45.365Z,2.05
2022-08-19T18:32:13.009Z,1.80
2022-08-19T18:34:44.467Z,1.60
2022-08-19T18:37:11.958Z,1.88
2022-08-19T18:39:57.953Z,1.63
2022-08-19T18:42:43.423Z,1.70
2022-08-19T18:45:29.751Z,1.67
2022-08-19T18:48:26.633Z,1.38
2022-08-19T18:50:59.656Z,1.83
2022-08-19T18:53:29.233Z,1.67
2022-08-19T18:55:57.048Z,1.90
2022-08-19T18:58:32.146Z,2.08
2022-08-19T19:01:01.618Z,1.48
2022-08-19T19:03:29.007Z,1.60
2022-08-19T19:05:56.032Z,2.00
2022-08-19T19:08:26.847Z,1.98
2022-08-19T19:10:56.016Z,2.13
2022-08-19T19:13:22.939Z,1.88
2022-08-19T19:15:49.876Z,2.30
2022-08-19T19:18:16.821Z,2.00
2022-08-19T19:20:43.763Z,1.95
2022-08-19T19:23:10.653Z,2.00
2022-08-19T19:25:49.749Z,2.13
2022-08-19T19:28:28.939Z,2.60
2022-08-19T19:31:00.510Z,1.90
2022-08-19T19:33:28.370Z,2.10
2022-08-19T19:35:55.467Z,2.10
2022-08-19T19:38:22.506Z,1.80
2022-08-19T19:40:49.404Z,1.90
2022-08-19T19:43:17.292Z,1.80
2022-08-19T19:45:44.732Z,1.98
2022-08-19T19:48:14.908Z,1.83
2022-08-19T19:50:43.560Z,1.88
2022-08-19T19:53:15.238Z,2.03
2022-08-19T19:55:43.176Z,1.95
2022-08-19T19:58:10.087Z,2.03
2022-08-19T20:00:37.381Z,1.70
2022-08-19T20:03:05.528Z,2.15
2022-08-19T20:05:32.527Z,2.40
2022-08-19T20:08:18.470Z,2.20
2022-08-19T20:10:46.022Z,1.92
2022-08-19T20:13:15.655Z,2.03
2022-08-19T20:15:45.814Z,1.58
2022-08-19T20:18:16.299Z,2.50
2022-08-19T20:20:45.088Z,1.75
2022-08-19T20:23:12.257Z,2.00
2022-08-19T20:25:39.704Z,2.17
2022-08-19T20:28:06.612Z,1.90
2022-08-19T20:30:33.845Z,2.50
2022-08-19T20:33:01.979Z,2.58
2022-08-19T20:35:28.960Z,2.33
2022-08-19T20:37:58.218Z,2.45
2022-08-19T20:40:26.808Z,2.08
2022-08-19T20:42:54.331Z,2.05
2022-08-19T20:45:33.437Z,1.95
2022-08-19T20:48:03.396Z,2.28
2022-08-19T20:50:35.317Z,1.67
2022-08-19T20:53:10.286Z,2.45
2022-08-19T20:55:37.278Z,2.25
2022-08-19T20:58:04.441Z,2.63
2022-08-19T21:00:31.490Z,2.20
2022-08-19T21:02:58.410Z,2.17
2022-08-19T21:05:30.248Z,1.98
2022-08-19T21:07:58.060Z,2.33
2022-08-19T21:10:26.172Z,3.03
2022-08-19T21:12:53.597Z,2.60
2022-08-19T21:15:20.711Z,2.50
2022-08-19T21:17:48.720Z,2.13
2022-08-19T21:20:15.723Z,3.03
2022-08-19T21:22:42.749Z,2.42
2022-08-19T21:25:09.840Z,2.75
2022-08-19T21:27:37.147Z,2.92
2022-08-19T21:30:05.392Z,2.85
2022-08-19T21:32:32.372Z,2.30
2022-08-19T21:34:59.284Z,3.17
2022-08-19T21:37:26.393Z,2.83
2022-08-19T21:39:54.297Z,3.50
2022-08-19T21:42:22.925Z,2.40
2022-08-19T21:44:49.875Z,2.53
2022-08-19T21:47:16.847Z,2.90
2022-08-19T21:49:43.791Z,2.95
2022-08-19T21:52:10.938Z,2.97
2022-08-19T21:54:38.428Z,3.13
2022-08-19T21:57:10.550Z,2.75
2022-08-19T21:59:43.785Z,3.17
2022-08-19T22:02:20.381Z,2.97
2022-08-19T22:04:48.927Z,3.05
2022-08-19T22:07:15.928Z,3.10
2022-08-19T22:09:44.764Z,2.70
2022-08-19T22:12:24.080Z,3.35
2022-08-19T22:14:52.267Z,3.50
2022-08-19T22:17:20.084Z,3.53
2022-08-19T22:19:47.240Z,3.70
2022-08-19T22:22:20.905Z,3.60
2022-08-19T22:27:14.732Z,3.58
2022-08-19T22:29:41.963Z,3.78
2022-08-19T22:32:26.961Z,3.17
2022-08-19T22:34:58.970Z,3.83
2022-08-19T22:37:27.027Z,3.13
2022-08-19T22:39:53.934Z,3.80
2022-08-19T22:42:22.045Z,4.13
2022-08-19T22:44:49.288Z,3.50
2022-08-19T22:47:16.757Z,3.42
2022-08-19T22:49:44.640Z,3.60
2022-08-19T22:52:18.491Z,3.55
2022-08-19T22:57:20.886Z,3.80
2022-08-19T22:59:49.502Z,5.13
2022-08-19T23:02:21.573Z,3.42
2022-08-19T23:04:49.742Z,4.22
2022-08-19T23:07:23.525Z,3.47
2022-08-19T23:09:51.332Z,4.32
2022-08-19T23:12:30.761Z,5.05
2022-08-19T23:15:18.062Z,4.53
2022-08-19T23:17:46.401Z,3.40
2022-08-19T23:20:15.470Z,3.92
2022-08-19T23:22:49.623Z,3.63
2022-08-19T23:25:21.288Z,4.28
2022-08-19T23:28:07.464Z,3.70
2022-08-19T23:30:37.998Z,4.10
2022-08-19T23:33:13.364Z,3.95
2022-08-19T23:35:41.107Z,3.92
2022-08-19T23:38:08.705Z,3.90
2022-08-19T23:40:36.926Z,3.55
2022-08-19T23:43:07.908Z,4.72
2022-08-19T23:45:39.625Z,4.00
2022-08-19T23:48:07.943Z,3.58
2022-08-19T23:50:35.270Z,3.88
2022-08-19T23:53:02.651Z,4.82
2022-08-19T23:55:32.897Z,3.67
2022-08-19T23:58:00.879Z,4.35
